createdAt,value
2022-08-06T00:00:06.607Z,101555.97
2022-08-06T00:02:44.264Z,101563.25
2022-08-06T00:05:17.821Z,101566.03
2022-08-06T00:07:53.495Z,101562.81
2022-08-06T00:10:29.293Z,101564.03
2022-08-06T00:13:02.021Z,101564.03
2022-08-06T00:16:09.662Z,101566.91
2022-08-06T00:18:27.413Z,101567.22
2022-08-06T00:20:57.140Z,101577.06
2022-08-06T00:23:26.762Z,101574.69
2022-08-06T00:25:56.648Z,101582.69
2022-08-06T00:28:30.787Z,101577.72
2022-08-06T00:31:06.265Z,101576.09
2022-08-06T00:33:44.224Z,101580.66
2022-08-06T00:36:28.560Z,101582.63
2022-08-06T00:39:00.243Z,101584.59
2022-08-06T00:41:41.814Z,101581.97
2022-08-06T00:44:15.086Z,101593.81
2022-08-06T00:46:47.905Z,101588.00
2022-08-06T00:49:48.064Z,101592.69
2022-08-06T00:52:09.832Z,101588.50
2022-08-06T00:54:39.479Z,101594.84
2022-08-06T00:57:12.071Z,101591.44
2022-08-06T00:59:43.301Z,101596.19
2022-08-06T01:02:16.581Z,101593.53
2022-08-06T01:04:46.422Z,101599.03
2022-08-06T01:07:16.825Z,101599.19
2022-08-06T01:09:57.775Z,101596.66
2022-08-06T01:12:33.780Z,101600.41
2022-08-06T01:15:15.414Z,101599.66
2022-08-06T01:17:58.084Z,101603.41
2022-08-06T01:21:58.142Z,101601.00
2022-08-06T01:23:54.704Z,101593.19
2022-08-06T01:26:34.141Z,101601.13
2022-08-06T01:29:09.674Z,101603.09
2022-08-06T01:31:48.012Z,101610.38
2022-08-06T01:34:25.511Z,101610.59
2022-08-06T01:37:07.370Z,101616.16
2022-08-06T01:39:53.515Z,101621.41
2022-08-06T01:42:35.578Z,101619.94
2022-08-06T01:45:11.989Z,101610.41
2022-08-06T01:47:54.335Z,101618.34
2022-08-06T01:50:30.307Z,101614.84
2022-08-06T01:53:02.569Z,101631.69
2022-08-06T01:55:56.619Z,101621.44
2022-08-06T01:58:30.338Z,101619.94
2022-08-06T02:01:07.217Z,101620.72
2022-08-06T02:03:50.111Z,101626.28
2022-08-06T02:06:32.477Z,101629.00
2022-08-06T02:09:21.933Z,101631.72
2022-08-06T02:15:58.944Z,101633.91
2022-08-06T02:18:36.887Z,101637.41
2022-08-06T02:21:19.479Z,101642.81
2022-08-06T02:24:03.341Z,101640.44
2022-08-06T02:26:34.278Z,101640.53
2022-08-06T02:29:06.434Z,101645.97
2022-08-06T02:31:50.736Z,101646.03
2022-08-06T02:34:27.023Z,101652.06
2022-08-06T02:37:01.275Z,101648.88
2022-08-06T02:39:47.353Z,101654.66
2022-08-06T02:42:25.991Z,101652.13
2022-08-06T02:45:03.318Z,101650.22
2022-08-06T02:47:55.572Z,101651.31
2022-08-06T02:50:36.878Z,101652.31
2022-08-06T02:53:23.633Z,101651.47
2022-08-06T02:55:57.503Z,101648.09
2022-08-06T02:58:38.634Z,101658.00
2022-08-06T03:01:21.664Z,101656.34
2022-08-06T03:03:59.123Z,101663.50
2022-08-06T03:06:35.213Z,101666.19
2022-08-06T03:09:07.091Z,101665.47
2022-08-06T03:11:39.035Z,101662.06
2022-08-06T03:14:31.718Z,101659.41
2022-08-06T03:17:01.683Z,101663.84
2022-08-06T03:19:57.710Z,101672.03
2022-08-06T03:22:35.270Z,101671.22
2022-08-06T03:25:10.925Z,101674.91
2022-08-06T03:27:43.127Z,101682.22
2022-08-06T03:30:33.008Z,101680.38
2022-08-06T03:33:29.431Z,101680.59
2022-08-06T03:36:00.789Z,101687.56
2022-08-06T03:38:37.372Z,101683.19
2022-08-06T03:41:08.018Z,101687.91
2022-08-06T03:43:56.007Z,101682.63
2022-08-06T03:46:30.795Z,101690.56
2022-08-06T03:49:02.869Z,101689.69
2022-08-06T03:51:52.822Z,101688.94
2022-08-06T03:54:30.796Z,101692.50
2022-08-06T03:57:08.515Z,101696.06
2022-08-06T03:59:58.728Z,101694.44
2022-08-06T04:02:45.971Z,101697.25
2022-08-06T04:05:22.453Z,101704.22
2022-08-06T04:07:56.714Z,101707.84
2022-08-06T04:10:35.454Z,101707.13
2022-08-06T04:14:03.570Z,101712.50
2022-08-06T04:16:02.102Z,101706.53
2022-08-06T04:18:34.260Z,101717.94
2022-08-06T04:21:19.727Z,101714.47
2022-08-06T04:23:51.196Z,101720.69
2022-08-06T04:26:29.605Z,101719.81
2022-08-06T04:29:00.739Z,101720.75
2022-08-06T04:32:11.917Z,101724.31
2022-08-06T04:34:27.304Z,101726.13
2022-08-06T04:36:59.203Z,101727.03
2022-08-06T04:39:37.957Z,101725.38
2022-08-06T04:42:17.026Z,101724.63
2022-08-06T04:44:59.532Z,101730.00
2022-08-06T04:47:42.031Z,101724.84
2022-08-06T04:50:17.754Z,101738.97
2022-08-06T04:52:53.200Z,101742.63
2022-08-06T04:55:33.331Z,101734.75
2022-08-06T04:58:11.948Z,101744.41
2022-08-06T05:00:59.620Z,101739.97
2022-08-06T05:04:03.199Z,101743.44
2022-08-06T05:06:24.649Z,101742.53
2022-08-06T05:08:58.799Z,101747.84
2022-08-06T05:11:34.771Z,101746.94
2022-08-06T05:14:17.687Z,101759.31
2022-08-06T05:16:53.746Z,101757.53
2022-08-06T05:19:30.687Z,101755.78
2022-08-06T05:22:10.784Z,101754.88
2022-08-06T05:25:00.687Z,101754.88
2022-08-06T05:27:54.227Z,101759.38
2022-08-06T05:30:28.439Z,101768.09
2022-08-06T05:32:59.331Z,101763.78
2022-08-06T05:35:41.615Z,101767.25
2022-08-06T05:38:31.430Z,101768.91
2022-08-06T05:41:01.875Z,101771.47
2022-08-06T05:43:57.681Z,101779.41
2022-08-06T05:46:26.767Z,101779.41
2022-08-06T05:49:12.292Z,101777.56
2022-08-06T05:52:01.861Z,101788.91
2022-08-06T05:54:39.184Z,101781.75
2022-08-06T05:57:16.483Z,101788.69
2022-08-06T05:59:56.915Z,101785.94
2022-08-06T06:02:32.083Z,101783.34
2022-08-06T06:06:04.821Z,101780.56
2022-08-06T06:08:10.137Z,101788.34
2022-08-06T06:10:53.207Z,101790.88
2022-08-06T06:13:39.818Z,101792.56
2022-08-06T06:16:22.131Z,101789.75
2022-08-06T06:19:15.249Z,101793.84
2022-08-06T06:21:52.503Z,101790.22
2022-08-06T06:24:26.897Z,101791.88
2022-08-06T06:27:02.542Z,101794.44
2022-08-06T06:30:06.955Z,101791.66
2022-08-06T06:32:42.584Z,101792.41
2022-08-06T06:35:24.924Z,101794.06
2022-08-06T06:38:01.836Z,101793.78
2022-08-06T06:41:00.070Z,101795.50
2022-08-06T06:43:43.751Z,101795.38
2022-08-06T06:46:34.735Z,101799.66
2022-08-06T06:49:53.154Z,101798.63
2022-08-06T06:52:08.900Z,101800.25
2022-08-06T06:54:42.581Z,101802.69
2022-08-06T06:57:19.589Z,101798.97
2022-08-06T07:00:04.305Z,101792.72
2022-08-06T07:02:46.252Z,101802.19
2022-08-06T07:05:17.751Z,101809.72
2022-08-06T07:08:11.674Z,101813.69
2022-08-06T07:10:43.775Z,101811.69
2022-08-06T07:13:16.237Z,101819.13
2022-08-06T07:15:54.505Z,101817.72
2022-08-06T07:18:34.221Z,101818.34
2022-08-06T07:21:05.594Z,101823.00
2022-08-06T07:24:06.586Z,101824.22
2022-08-06T07:26:28.117Z,101822.09
2022-08-06T07:29:03.504Z,101818.19
2022-08-06T07:31:36.459Z,101817.69
2022-08-06T07:34:09.408Z,101824.25
2022-08-06T07:36:41.551Z,101821.97
2022-08-06T07:39:15.892Z,101829.34
2022-08-06T07:42:07.709Z,101827.84
2022-08-06T07:44:54.663Z,101835.13
2022-08-06T07:47:41.245Z,101828.13
2022-08-06T07:50:23.462Z,101827.47
2022-08-06T07:52:55.073Z,101832.88
2022-08-06T07:55:37.045Z,101834.66
2022-08-06T07:58:10.946Z,101831.84
2022-08-06T08:00:49.466Z,101837.78
2022-08-06T08:03:55.924Z,101832.34
2022-08-06T08:06:25.591Z,101826.50
2022-08-06T08:08:58.321Z,101829.06
2022-08-06T08:11:37.452Z,101831.66
2022-08-06T08:14:24.731Z,101822.22
2022-08-06T08:16:56.009Z,101837.78
2022-08-06T08:19:34.484Z,101835.97
2022-08-06T08:22:07.589Z,101827.63
2022-08-06T08:24:39.472Z,101827.66
2022-08-06T08:27:22.090Z,101823.56
2022-08-06T08:29:56.645Z,101822.66
2022-08-06T08:32:27.695Z,101825.31
2022-08-06T08:34:57.845Z,101820.06
2022-08-06T08:37:31.845Z,101828.09
2022-08-06T08:40:02.342Z,101826.78
2022-08-06T08:42:40.785Z,101822.28
2022-08-06T08:45:13.060Z,101821.56
2022-08-06T08:47:53.940Z,101827.44
2022-08-06T08:50:30.165Z,101825.66
2022-08-06T08:53:02.486Z,101822.25
2022-08-06T08:57:07.165Z,101815.47
2022-08-06T08:58:41.933Z,101823.13
2022-08-06T09:01:51.479Z,101823.06
2022-08-06T09:04:06.377Z,101824.41
2022-08-06T09:06:37.175Z,101824.59
2022-08-06T09:09:15.828Z,101822.44
2022-08-06T09:12:04.290Z,101828.84
2022-08-06T09:14:39.655Z,101823.56
2022-08-06T09:17:14.378Z,101833.19
2022-08-06T09:19:49.711Z,101829.94
2022-08-06T09:22:19.357Z,101833.28
2022-08-06T09:24:53.118Z,101827.34
2022-08-06T09:27:46.845Z,101830.50
2022-08-06T09:30:30.030Z,101830.38
2022-08-06T09:33:04.333Z,101826.81
2022-08-06T09:36:00.932Z,101824.78
2022-08-06T09:38:32.973Z,101827.63
2022-08-06T09:41:07.311Z,101834.72
2022-08-06T09:44:03.401Z,101823.81
2022-08-06T09:46:48.259Z,101822.22
2022-08-06T09:49:48.323Z,101825.88
2022-08-06T09:52:18.166Z,101822.91
2022-08-06T09:54:53.308Z,101824.41
2022-08-06T09:57:36.216Z,101824.09
2022-08-06T10:00:14.308Z,101828.06
2022-08-06T10:02:51.133Z,101822.31
2022-08-06T10:05:23.116Z,101831.44
2022-08-06T10:08:07.108Z,101827.16
2022-08-06T10:10:56.757Z,101833.06
2022-08-06T10:13:30.902Z,101830.25
2022-08-06T10:16:28.953Z,101835.75
2022-08-06T10:19:18.280Z,101828.94
2022-08-06T10:21:49.191Z,101835.75
2022-08-06T10:24:26.007Z,101834.41
2022-08-06T10:27:24.821Z,101824.66
2022-08-06T10:29:55.881Z,101823.06
2022-08-06T10:32:30.655Z,101820.78
2022-08-06T10:35:12.205Z,101820.25
2022-08-06T10:37:47.816Z,101817.75
2022-08-06T10:40:30.695Z,101816.84
2022-08-06T10:43:01.975Z,101820.81
2022-08-06T10:45:48.653Z,101810.56
2022-08-06T10:49:00.986Z,101817.44
2022-08-06T10:51:14.867Z,101802.91
2022-08-06T10:54:01.206Z,101811.53
2022-08-06T10:56:38.157Z,101819.09
2022-08-06T10:59:15.376Z,101817.06
2022-08-06T11:01:54.995Z,101813.19
2022-08-06T11:04:37.315Z,101810.78
2022-08-06T11:08:12.915Z,101804.00
2022-08-06T11:10:40.468Z,101794.16
2022-08-06T11:13:17.379Z,101793.69
2022-08-06T11:15:47.865Z,101790.88
2022-08-06T11:18:22.059Z,101794.53
2022-08-06T11:21:01.152Z,101785.88
2022-08-06T11:23:59.196Z,101790.53
2022-08-06T11:26:44.274Z,101788.31
2022-08-06T11:29:16.355Z,101792.22
2022-08-06T11:31:56.879Z,101789.88
2022-08-06T11:34:48.612Z,101790.09
2022-08-06T11:38:03.772Z,101785.31
2022-08-06T11:41:06.187Z,101788.56
2022-08-06T11:44:07.824Z,101789.06
2022-08-06T11:46:43.020Z,101792.38
2022-08-06T11:49:25.387Z,101783.59
2022-08-06T11:52:03.954Z,101778.13
2022-08-06T11:54:38.453Z,101777.78
2022-08-06T11:57:41.998Z,101779.88
2022-08-06T12:00:22.239Z,101787.31
2022-08-06T12:03:01.435Z,101787.09
2022-08-06T12:05:56.707Z,101791.22
2022-08-06T12:08:42.246Z,101789.84
2022-08-06T12:11:29.307Z,101773.97
2022-08-06T12:14:33.311Z,101773.97
2022-08-06T12:17:02.588Z,101771.13
2022-08-06T12:19:32.830Z,101767.00
2022-08-06T12:22:03.461Z,101771.72
2022-08-06T12:24:51.867Z,101765.75
2022-08-06T12:27:25.048Z,101761.13
2022-08-06T12:30:04.882Z,101760.41
2022-08-06T12:32:45.817Z,101755.41
2022-08-06T12:35:27.481Z,101765.31
2022-08-06T12:37:57.451Z,101759.81
2022-08-06T12:40:28.440Z,101759.72
2022-08-06T12:43:15.380Z,101755.13
2022-08-06T12:46:06.866Z,101745.97
2022-08-06T12:48:41.237Z,101740.97
2022-08-06T12:51:17.576Z,101742.81
2022-08-06T12:53:53.038Z,101748.78
2022-08-06T12:56:29.865Z,101743.06
2022-08-06T12:59:05.223Z,101744.38
2022-08-06T13:02:07.444Z,101740.50
2022-08-06T13:04:31.718Z,101739.50
2022-08-06T13:07:09.045Z,101740.13
2022-08-06T13:10:08.344Z,101735.47
2022-08-06T13:14:03.762Z,101733.97
2022-08-06T13:15:24.318Z,101732.66
2022-08-06T13:18:30.656Z,101734.09
2022-08-06T13:21:02.795Z,101739.00
2022-08-06T13:23:35.149Z,101729.09
2022-08-06T13:26:25.825Z,101728.50
2022-08-06T13:30:29.242Z,101716.13
2022-08-06T13:32:19.519Z,101716.84
2022-08-06T13:35:00.101Z,101713.53
2022-08-06T13:37:54.299Z,101718.72
2022-08-06T13:40:41.879Z,101714.78
2022-08-06T13:43:39.178Z,101710.72
2022-08-06T13:46:11.504Z,101712.81
2022-08-06T13:48:46.294Z,101706.03
2022-08-06T13:51:27.200Z,101709.91
2022-08-06T13:54:03.922Z,101696.84
2022-08-06T13:56:48.583Z,101707.50
2022-08-06T13:59:39.766Z,101706.06
2022-08-06T14:02:12.504Z,101708.53
2022-08-06T14:04:50.285Z,101708.53
2022-08-06T14:07:23.082Z,101701.78
2022-08-06T14:10:09.913Z,101708.53
2022-08-06T14:12:43.485Z,101713.91
2022-08-06T14:15:14.896Z,101707.78
2022-08-06T14:17:46.027Z,101701.91
2022-08-06T14:20:19.285Z,101704.25
2022-08-06T14:22:56.537Z,101700.94
2022-08-06T14:25:28.634Z,101704.72
2022-08-06T14:28:18.051Z,101702.56
2022-08-06T14:30:52.179Z,101693.81
2022-08-06T14:33:26.703Z,101691.25
2022-08-06T14:36:07.881Z,101694.34
2022-08-06T14:38:42.657Z,101692.09
2022-08-06T14:41:50.181Z,101681.84
2022-08-06T14:44:27.776Z,101684.19
2022-08-06T14:46:59.801Z,101680.59
2022-08-06T14:49:45.600Z,101679.72
2022-08-06T14:52:24.193Z,101680.44
2022-08-06T14:55:07.016Z,101681.63
2022-08-06T14:57:56.574Z,101683.97
2022-08-06T15:00:34.895Z,101682.25
2022-08-06T15:03:07.854Z,101677.22
2022-08-06T15:06:04.165Z,101674.59
2022-08-06T15:08:32.996Z,101672.25
2022-08-06T15:11:14.280Z,101661.88
2022-08-06T15:13:51.887Z,101672.06
2022-08-06T15:16:47.989Z,101667.88
2022-08-06T15:19:28.319Z,101663.47
2022-08-06T15:22:00.777Z,101660.06
2022-08-06T15:24:31.180Z,101657.34
2022-08-06T15:27:09.193Z,101649.66
2022-08-06T15:29:39.027Z,101648.56
2022-08-06T15:32:18.235Z,101644.16
2022-08-06T15:34:50.117Z,101646.97
2022-08-06T15:37:52.551Z,101644.88
2022-08-06T15:40:13.088Z,101641.22
2022-08-06T15:42:46.537Z,101639.50
2022-08-06T15:45:49.836Z,101635.56
2022-08-06T15:48:07.648Z,101641.19
2022-08-06T15:50:44.833Z,101639.22
2022-08-06T15:53:28.393Z,101636.53
2022-08-06T15:56:00.540Z,101629.72
2022-08-06T15:58:32.911Z,101637.28
2022-08-06T16:01:05.214Z,101639.00
2022-08-06T16:03:57.781Z,101630.78
2022-08-06T16:06:28.491Z,101634.25
2022-08-06T16:09:00.115Z,101632.53
2022-08-06T16:11:48.065Z,101632.16
2022-08-06T16:14:33.386Z,101637.16
2022-08-06T16:17:10.052Z,101630.69
2022-08-06T16:19:49.450Z,101631.41
2022-08-06T16:22:22.069Z,101629.56
2022-08-06T16:24:52.085Z,101627.38
2022-08-06T16:27:22.200Z,101626.16
2022-08-06T16:29:59.674Z,101623.34
2022-08-06T16:32:30.104Z,101626.75
2022-08-06T16:35:01.631Z,101618.81
2022-08-06T16:37:33.279Z,101623.59
2022-08-06T16:40:10.753Z,101621.88
2022-08-06T16:42:41.380Z,101616.69
2022-08-06T16:48:27.108Z,101618.91
2022-08-06T16:50:54.482Z,101620.38
2022-08-06T16:54:14.440Z,101623.34
2022-08-06T16:56:22.099Z,101619.28
2022-08-06T16:58:53.661Z,101618.94
2022-08-06T17:02:14.863Z,101619.56
2022-08-06T17:07:05.717Z,101619.72
2022-08-06T17:09:48.202Z,101620.44
2022-08-06T17:12:18.796Z,101613.09
2022-08-06T17:14:52.671Z,101619.47
2022-08-06T17:17:37.155Z,101616.31
2022-08-06T17:20:15.840Z,101625.84
2022-08-06T17:22:48.235Z,101627.56
2022-08-06T17:25:22.033Z,101614.72
2022-08-06T17:27:57.743Z,101615.09
2022-08-06T17:30:28.213Z,101614.34
2022-08-06T17:33:00.596Z,101618.25
2022-08-06T17:36:29.927Z,101622.28
2022-08-06T17:38:20.080Z,101619.75
2022-08-06T17:42:29.091Z,101620.75
2022-08-06T17:43:56.848Z,101616.28
2022-08-06T17:46:29.776Z,101616.63
2022-08-06T17:49:07.663Z,101615.28
2022-08-06T17:51:37.493Z,101623.31
2022-08-06T17:54:26.920Z,101616.50
2022-08-06T17:57:01.595Z,101616.09
2022-08-06T17:59:31.902Z,101616.22
2022-08-06T18:02:02.889Z,101626.97
2022-08-06T18:04:40.345Z,101617.22
2022-08-06T18:07:25.771Z,101615.97
2022-08-06T18:10:17.847Z,101615.81
2022-08-06T18:12:48.538Z,101618.72
2022-08-06T18:15:19.520Z,101619.94
2022-08-06T18:18:04.051Z,101617.06
2022-08-06T18:20:38.845Z,101619.47
2022-08-06T18:23:21.344Z,101619.69
2022-08-06T18:25:56.939Z,101622.00
2022-08-06T18:28:33.376Z,101620.72
2022-08-06T18:31:09.692Z,101627.53
2022-08-06T18:33:42.600Z,101626.28
2022-08-06T18:36:18.575Z,101622.97
2022-08-06T18:39:03.166Z,101623.66
2022-08-06T18:41:56.701Z,101622.72
2022-08-06T18:44:27.821Z,101624.78
2022-08-06T18:47:03.469Z,101626.19
2022-08-06T18:49:50.682Z,101634.63
2022-08-06T18:52:24.420Z,101635.31
2022-08-06T18:54:58.020Z,101636.81
2022-08-06T18:58:04.947Z,101637.25
2022-08-06T19:00:21.119Z,101641.03
2022-08-06T19:02:54.224Z,101646.94
2022-08-06T19:05:28.117Z,101640.41
2022-08-06T19:08:05.671Z,101649.72
2022-08-06T19:10:36.211Z,101648.53
2022-08-06T19:13:08.636Z,101652.72
2022-08-06T19:15:46.308Z,101652.50
2022-08-06T19:18:24.188Z,101655.66
2022-08-06T19:20:55.753Z,101661.88
2022-08-06T19:24:01.911Z,101667.19
2022-08-06T19:26:21.016Z,101666.97
2022-08-06T19:28:51.332Z,101671.66
2022-08-06T19:31:42.255Z,101668.84
2022-08-06T19:34:15.615Z,101676.81
2022-08-06T19:36:48.342Z,101675.31
2022-08-06T19:39:53.879Z,101685.19
2022-08-06T19:42:32.645Z,101682.28
2022-08-06T19:45:04.922Z,101680.66
2022-08-06T19:47:47.192Z,101683.06
2022-08-06T19:50:18.315Z,101679.63
2022-08-06T19:52:49.940Z,101678.00
2022-08-06T19:56:06.596Z,101685.53
2022-08-06T19:58:25.831Z,101686.81
2022-08-06T20:01:31.045Z,101687.31
2022-08-06T20:03:59.438Z,101692.53
2022-08-06T20:06:29.786Z,101690.19
2022-08-06T20:09:27.102Z,101696.75
2022-08-06T20:12:07.076Z,101688.34
2022-08-06T20:14:37.341Z,101687.88
2022-08-06T20:17:07.053Z,101692.44
2022-08-06T20:20:07.381Z,101699.31
2022-08-06T20:22:28.393Z,101698.22
2022-08-06T20:24:58.074Z,101695.72
2022-08-06T20:27:38.879Z,101700.72
2022-08-06T20:30:20.896Z,101707.47
2022-08-06T20:32:50.878Z,101706.91
2022-08-06T20:35:27.056Z,101708.94
2022-08-06T20:38:02.997Z,101709.13
2022-08-06T20:41:26.202Z,101712.31
2022-08-06T20:44:05.906Z,101713.88
2022-08-06T20:46:22.552Z,101711.38
2022-08-06T20:48:59.004Z,101719.91
2022-08-06T20:51:29.416Z,101719.22
2022-08-06T20:54:16.960Z,101716.91
2022-08-06T20:56:49.196Z,101717.97
2022-08-06T20:59:21.537Z,101712.31
2022-08-06T21:02:03.365Z,101712.63
2022-08-06T21:05:14.387Z,101722.78
2022-08-06T21:07:36.928Z,101716.69
2022-08-06T21:10:11.480Z,101719.75
2022-08-06T21:12:44.911Z,101715.28
2022-08-06T21:15:54.030Z,101716.91
2022-08-06T21:18:22.032Z,101715.44
2022-08-06T21:20:54.336Z,101717.72
2022-08-06T21:23:55.367Z,101717.09
2022-08-06T21:26:16.422Z,101721.75
2022-08-06T21:28:52.429Z,101725.50
2022-08-06T21:31:27.317Z,101719.50
2022-08-06T21:33:57.614Z,101723.00
2022-08-06T21:36:29.053Z,101730.47
2022-08-06T21:38:59.564Z,101723.19
2022-08-06T21:41:54.756Z,101726.97
2022-08-06T21:44:27.675Z,101727.22
2022-08-06T21:47:02.615Z,101718.91
2022-08-06T21:50:04.237Z,101726.13
2022-08-06T21:52:31.482Z,101720.19
2022-08-06T21:55:05.451Z,101719.38
2022-08-06T21:57:48.049Z,101716.88
2022-08-06T22:00:39.669Z,101719.94
2022-08-06T22:04:38.580Z,101726.56
2022-08-06T22:06:20.100Z,101724.28
2022-08-06T22:08:55.637Z,101726.31
2022-08-06T22:12:36.634Z,101730.16
2022-08-06T22:14:28.883Z,101725.13
2022-08-06T22:17:05.835Z,101725.56
2022-08-06T22:19:42.885Z,101724.72
2022-08-06T22:22:13.482Z,101713.41
2022-08-06T22:24:51.317Z,101713.56
2022-08-06T22:27:21.687Z,101716.44
2022-08-06T22:30:04.263Z,101705.28
2022-08-06T22:32:36.218Z,101711.88
2022-08-06T22:35:11.317Z,101705.72
2022-08-06T22:38:16.589Z,101708.53
2022-08-06T22:40:34.504Z,101701.81
2022-08-06T22:43:17.161Z,101700.25
2022-08-06T22:46:02.354Z,101695.97
2022-08-06T22:48:36.376Z,101696.22
2022-08-06T22:51:11.808Z,101696.28
2022-08-06T22:54:30.034Z,101700.00
2022-08-06T22:56:39.322Z,101692.91
2022-08-06T22:59:18.696Z,101694.06
2022-08-06T23:02:07.818Z,101692.47
2022-08-06T23:04:46.416Z,101695.28
2022-08-06T23:07:21.432Z,101689.22
2022-08-06T23:09:58.816Z,101686.81
2022-08-06T23:12:36.094Z,101692.22
2022-08-06T23:15:30.019Z,101688.97
2022-08-06T23:18:00.330Z,101688.25
2022-08-06T23:20:32.766Z,101689.38
2022-08-06T23:23:07.773Z,101691.94
2022-08-06T23:25:59.477Z,101690.19
2022-08-06T23:28:29.176Z,101692.13
2022-08-06T23:30:59.028Z,101694.06
2022-08-06T23:33:38.134Z,101691.59
2022-08-06T23:36:14.807Z,101691.13
2022-08-06T23:38:50.866Z,101689.28
2022-08-06T23:41:24.437Z,101687.81
2022-08-06T23:44:18.307Z,101694.97
2022-08-06T23:46:50.843Z,101692.41
2022-08-06T23:49:21.197Z,101693.38
2022-08-06T23:52:03.145Z,101691.94
2022-08-06T23:54:36.847Z,101684.28
2022-08-06T23:57:09.774Z,101678.28
2022-08-06T23:59:47.477Z,101676.88
